KPSP

Palm Springs International Airport

Palm Springs, California, USA
KPSP 251734Z 2518/2618 VRB05KT P6SM SKC FM252200 32012G22KT P6SM SKC FM260500 32009KT P6SM SKC FM260800 VRB03KT P6SM FEW200
Issued Valid From Valid To
Apr-25 @ 17:34 UTC
(48 minutes ago)
Apr-25 @ 18:00 UTC
(22 minutes ago)
Apr-26 @ 18:00 UTC
(in 24 hours)
Apr-25 @ 18:00 to Apr-25 @ 22:00
KPSP 251734Z 2518/2618 VRB05KT P6SM SKC
Wind Visibility Clouds
Variable at 5 knots Greater than 6 miles
  • Clear skies
From Apr-25 @ 22:00 to Apr-26 @ 05:00
FM252200 32012G22KT P6SM SKC
Wind Visibility Clouds
320° at 12 knots
 Gusting to 22 knots
Greater than 6 miles
  • Clear skies
From Apr-26 @ 05:00 to Apr-26 @ 08:00
FM260500 32009KT P6SM SKC
Wind Visibility Clouds
320° at 9 knots Greater than 6 miles
  • Clear skies
From Apr-26 @ 08:00 to Apr-26 @ 18:00
FM260800 VRB03KT P6SM FEW200
Wind Visibility Clouds
Variable at 3 knots Greater than 6 miles
  • Few at 20,000' AGL
KPSP 251734Z 2518/2618 VRB05KT P6SM SKC FM252200 32012G22KT P6SM SKC FM260500 32009KT P6SM SKC FM260800 VRB03KT P6SM FEW200
Issued Apr-25 @ 17:34 UTC
(48 minutes ago)
Valid From Apr-25 @ 18:00 UTC
(22 minutes ago)
Valid To Apr-26 @ 18:00 UTC
(in 24 hours)
Apr-25 @ 18:00 - Apr-25 @ 22:00
Wind Visibility
Variable at 5 knots Greater than 6 miles
Clouds
  • Clear skies
From Apr-25 @ 22:00 - Apr-26 @ 05:00
Wind Visibility
320° at 12 knots
 Gusting to 22 knots
Greater than 6 miles
Clouds
  • Clear skies
From Apr-26 @ 05:00 - Apr-26 @ 08:00
Wind Visibility
320° at 9 knots Greater than 6 miles
Clouds
  • Clear skies
From Apr-26 @ 08:00 - Apr-26 @ 18:00
Wind Visibility
Variable at 3 knots Greater than 6 miles
Clouds
  • Few at 20,000' AGL